首页
METAR-TAF:

METAR-TAF

机场 :

塞雷茨·卡马爵士国际机场

嘉柏隆里, 博兹瓦纳

纬度: 24-13S, 经度: 025-55E, 海拔: 1005米

当前天气观测

该预报发布于31分钟前的09:00 UTC
温度 21°C
湿度 16%
气压 1022 hPa
能见度10公里或以上
1500米以下无云,无积雨云

METAR: FBSK 200900Z /////KT CAVOK 21/M06 Q1022 NOSIG

时间: 11:31 (09:31 UTC)

预报

该预报发布于5小时和31分钟前的04:00 UTC
预报有效从20日的 06点(UTC)到 21日的 12点(UTC)
风速6节,风向西转西南
能见度10公里或以上
1500米以下无云,无积雨云
成为
从 21日的 09点(UTC)到 21日的 11点(UTC)
风速2节,风向多变

TAF: FBSK 200400Z 2006/2112 24006KT CAVOK BECMG 2109/2111 VRB02KT

超过4000个机场的气象观测和天气预报(METAR&TAF报告)。

可查询的气象台以黄色和红色小点在地图上表示。

将鼠标移到小点上方,可查看气象台名称。

然后点击查看天气观测和预报。

如需切换地图:点击带黑十字的绿色按钮放大地图;点击带横线的绿色按钮缩小地图;或者点击绿色箭头查看邻近地区的地图。


METAR-TAF: